sensor_id;sensor_type;location;lat;lon;timestamp;pressure;altitude;pressure_sealevel;temperature;humidity
19797;BME280;10058;57.654;12.044;2024-03-07T00:00:05;102768.41;;;1.92;100.00
19797;BME280;10058;57.654;12.044;2024-03-07T00:02:39;102767.31;;;1.98;100.00
19797;BME280;10058;57.654;12.044;2024-03-07T00:05:04;102765.03;;;1.93;100.00
19797;BME280;10058;57.654;12.044;2024-03-07T00:07:30;102762.84;;;1.97;100.00
19797;BME280;10058;57.654;12.044;2024-03-07T00:09:55;102753.69;;;1.92;100.00
19797;BME280;10058;57.654;12.044;2024-03-07T00:12:21;102772.16;;;1.85;100.00
19797;BME280;10058;57.654;12.044;2024-03-07T00:14:47;102763.56;;;1.86;100.00
19797;BME280;10058;57.654;12.044;2024-03-07T00:17:13;102762.00;;;1.88;100.00
19797;BME280;10058;57.654;12.044;2024-03-07T00:19:39;102762.84;;;1.97;100.00
19797;BME280;10058;57.654;12.044;2024-03-07T00:22:04;102756.09;;;1.99;100.00
19797;BME280;10058;57.654;12.044;2024-03-07T00:24:29;102750.59;;;1.96;100.00
19797;BME280;10058;57.654;12.044;2024-03-07T00:26:54;102762.00;;;1.88;100.00
19797;BME280;10058;57.654;12.044;2024-03-07T00:29:22;102758.63;;;1.89;100.00
19797;BME280;10058;57.654;12.044;2024-03-07T00:31:47;102753.13;;;1.86;100.00
19797;BME280;10058;57.654;12.044;2024-03-07T00:34:13;102766.34;;;1.79;100.00
19797;BME280;10058;57.654;12.044;2024-03-07T00:36:39;102758.03;;;1.83;100.00
19797;BME280;10058;57.654;12.044;2024-03-07T00:39:05;102761.81;;;1.68;100.00
19797;BME280;10058;57.654;12.044;2024-03-07T00:41:33;102759.38;;;1.61;100.00
19797;BME280;10058;57.654;12.044;2024-03-07T00:43:58;102761.81;;;1.68;100.00
19797;BME280;10058;57.654;12.044;2024-03-07T00:46:23;102756.16;;;1.63;100.00
19797;BME280;10058;57.654;12.044;2024-03-07T00:48:48;102768.28;;;1.63;100.00
19797;BME280;10058;57.654;12.044;2024-03-07T00:51:14;102760.94;;;1.59;100.00
19797;BME280;10058;57.654;12.044;2024-03-07T00:53:39;102767.03;;;1.68;100.00
19797;BME280;10058;57.654;12.044;2024-03-07T00:56:06;102765.38;;;1.60;100.00
19797;BME280;10058;57.654;12.044;2024-03-07T00:58:31;102767.88;;;1.50;100.00
19797;BME280;10058;57.654;12.044;2024-03-07T01:00:56;102754.84;;;1.50;100.00
19797;BME280;10058;57.654;12.044;2024-03-07T01:03:22;102761.31;;;1.45;100.00
19797;BME280;10058;57.654;12.044;2024-03-07T01:05:49;102760.38;;;1.53;100.00
19797;BME280;10058;57.654;12.044;2024-03-07T01:08:14;102764.38;;;1.40;100.00
19797;BME280;10058;57.654;12.044;2024-03-07T01:10:39;102772.25;;;1.32;100.00
19797;BME280;10058;57.654;12.044;2024-03-07T01:13:05;102765.44;;;1.43;100.00
19797;BME280;10058;57.654;12.044;2024-03-07T01:15:33;102766.06;;;1.49;100.00
19797;BME280;10058;57.654;12.044;2024-03-07T01:17:59;102757.63;;;1.43;100.00
19797;BME280;10058;57.654;12.044;2024-03-07T01:20:24;102763.91;;;1.45;100.00
19797;BME280;10058;57.654;12.044;2024-03-07T01:22:50;102756.41;;;1.48;100.00
19797;BME280;10058;57.654;12.044;2024-03-07T01:25:16;102762.84;;;1.43;100.00
19797;BME280;10058;57.654;12.044;2024-03-07T01:27:41;102756.88;;;1.44;100.00
19797;BME280;10058;57.654;12.044;2024-03-07T01:30:07;102759.69;;;1.36;100.00
19797;BME280;10058;57.654;12.044;2024-03-07T01:32:33;102717.00;;;1.17;100.00
19797;BME280;10058;57.654;12.044;2024-03-07T01:34:58;102762.28;;;1.36;100.00
19797;BME280;10058;57.654;12.044;2024-03-07T01:37:23;102755.25;;;1.35;100.00
19797;BME280;10058;57.654;12.044;2024-03-07T01:39:49;102762.00;;;1.25;100.00
19797;BME280;10058;57.654;12.044;2024-03-07T01:42:14;102763.53;;;1.23;100.00
19797;BME280;10058;57.654;12.044;2024-03-07T01:44:40;102759.59;;;1.18;100.00
19797;BME280;10058;57.654;12.044;2024-03-07T01:47:06;102764.81;;;1.18;100.00
19797;BME280;10058;57.654;12.044;2024-03-07T01:49:32;102765.56;;;1.17;100.00
19797;BME280;10058;57.654;12.044;2024-03-07T01:51:57;102770.00;;;1.18;100.00
19797;BME280;10058;57.654;12.044;2024-03-07T01:54:23;102760.78;;;1.21;100.00
19797;BME280;10058;57.654;12.044;2024-03-07T01:56:50;102763.28;;;1.20;100.00
19797;BME280;10058;57.654;12.044;2024-03-07T01:59:15;102760.38;;;1.17;100.00
19797;BME280;10058;57.654;12.044;2024-03-07T02:01:41;102758.84;;;1.10;100.00
19797;BME280;10058;57.654;12.044;2024-03-07T02:04:07;102759.16;;;1.04;100.00
19797;BME280;10058;57.654;12.044;2024-03-07T02:06:33;102761.63;;;1.03;100.00
19797;BME280;10058;57.654;12.044;2024-03-07T02:08:58;102760.56;;;1.01;100.00
19797;BME280;10058;57.654;12.044;2024-03-07T02:11:23;102760.41;;;0.91;100.00
19797;BME280;10058;57.654;12.044;2024-03-07T02:13:49;102752.00;;;0.93;100.00
19797;BME280;10058;57.654;12.044;2024-03-07T02:16:14;102755.97;;;0.90;100.00
19797;BME280;10058;57.654;12.044;2024-03-07T02:18:39;102755.97;;;0.90;100.00
19797;BME280;10058;57.654;12.044;2024-03-07T02:21:07;102761.19;;;0.90;100.00
19797;BME280;10058;57.654;12.044;2024-03-07T02:23:34;102746.97;;;0.86;100.00
19797;BME280;10058;57.654;12.044;2024-03-07T02:25:59;102752.59;;;0.91;100.00
19797;BME280;10058;57.654;12.044;2024-03-07T02:28:24;102758.59;;;0.90;100.00
19797;BME280;10058;57.654;12.044;2024-03-07T02:30:49;102753.06;;;0.87;100.00
19797;BME280;10058;57.654;12.044;2024-03-07T02:33:14;102753.88;;;0.86;100.00
19797;BME280;10058;57.654;12.044;2024-03-07T02:35:40;102757.84;;;0.82;100.00
19797;BME280;10058;57.654;12.044;2024-03-07T02:38:05;102746.53;;;0.82;100.00
19797;BME280;10058;57.654;12.044;2024-03-07T02:40:30;102748.97;;;0.80;100.00
19797;BME280;10058;57.654;12.044;2024-03-07T02:42:56;102747.13;;;0.79;100.00
19797;BME280;10058;57.654;12.044;2024-03-07T02:45:21;102754.78;;;0.78;100.00
19797;BME280;10058;57.654;12.044;2024-03-07T02:47:46;102749.59;;;0.78;100.00
19797;BME280;10058;57.654;12.044;2024-03-07T02:50:11;102748.34;;;0.74;100.00
19797;BME280;10058;57.654;12.044;2024-03-07T02:52:37;102748.97;;;0.72;100.00
19797;BME280;10058;57.654;12.044;2024-03-07T02:55:04;102747.13;;;0.70;100.00
19797;BME280;10058;57.654;12.044;2024-03-07T02:57:30;102744.69;;;0.72;100.00
19797;BME280;10058;57.654;12.044;2024-03-07T02:59:55;102739.47;;;0.72;100.00
19797;BME280;10058;57.654;12.044;2024-03-07T03:02:21;102747.13;;;0.70;100.00
19797;BME280;10058;57.654;12.044;2024-03-07T03:04:46;102737.97;;;0.65;100.00
19797;BME280;10058;57.654;12.044;2024-03-07T03:07:12;102743.19;;;0.65;100.00
19797;BME280;10058;57.654;12.044;2024-03-07T03:09:37;102739.50;;;0.63;100.00
19797;BME280;10058;57.654;12.044;2024-03-07T03:12:08;102746.56;;;0.64;100.00
19797;BME280;10058;57.654;12.044;2024-03-07T03:14:33;102744.09;;;0.57;100.00
19797;BME280;10058;57.654;12.044;2024-03-07T03:16:58;102741.03;;;0.61;100.00
19797;BME280;10058;57.654;12.044;2024-03-07T03:19:24;102737.97;;;0.65;100.00
19797;BME280;10058;57.654;12.044;2024-03-07T03:21:51;102748.38;;;0.65;100.00
19797;BME280;10058;57.654;12.044;2024-03-07T03:24:17;102741.97;;;0.62;100.00
19797;BME280;10058;57.654;12.044;2024-03-07T03:26:42;102751.44;;;0.61;100.00
19797;BME280;10058;57.654;12.044;2024-03-07T03:29:07;102746.56;;;0.64;100.00
19797;BME280;10058;57.654;12.044;2024-03-07T03:31:34;102739.97;;;0.68;100.00
19797;BME280;10058;57.654;12.044;2024-03-07T03:34:00;102735.69;;;0.68;100.00
19797;BME280;10058;57.654;12.044;2024-03-07T03:36:26;102729.69;;;0.69;100.00
19797;BME280;10058;57.654;12.044;2024-03-07T03:38:51;102732.00;;;0.66;100.00
19797;BME280;10058;57.654;12.044;2024-03-07T03:41:16;102732.44;;;0.71;100.00
19797;BME280;10058;57.654;12.044;2024-03-07T03:43:42;102727.22;;;0.71;100.00
19797;BME280;10058;57.654;12.044;2024-03-07T03:46:09;102732.44;;;0.71;100.00
19797;BME280;10058;57.654;12.044;2024-03-07T03:48:35;102729.56;;;0.68;100.00
19797;BME280;10058;57.654;12.044;2024-03-07T03:51:00;102727.72;;;0.67;100.00
19797;BME280;10058;57.654;12.044;2024-03-07T03:53:25;102735.22;;;0.64;100.00
19797;BME280;10058;57.654;12.044;2024-03-07T03:55:50;102728.50;;;0.57;100.00
19797;BME280;10058;57.654;12.044;2024-03-07T03:58:16;102720.22;;;0.53;100.00
19797;BME280;10058;57.654;12.044;2024-03-07T04:00:41;102728.78;;;0.60;100.00
19797;BME280;10058;57.654;12.044;2024-03-07T04:03:07;102728.78;;;0.60;100.00
19797;BME280;10058;57.654;12.044;2024-03-07T04:05:32;102730.63;;;0.53;100.00
19797;BME280;10058;57.654;12.044;2024-03-07T04:07:57;102726.06;;;0.50;100.00
19797;BME280;10058;57.654;12.044;2024-03-07T04:10:23;102730.00;;;0.55;100.00
19797;BME280;10058;57.654;12.044;2024-03-07T04:12:51;102729.69;;;0.52;100.00
19797;BME280;10058;57.654;12.044;2024-03-07T04:15:17;102726.22;;;0.52;100.00
19797;BME280;10058;57.654;12.044;2024-03-07T04:17:42;102732.81;;;0.48;100.00
19797;BME280;10058;57.654;12.044;2024-03-07T04:20:08;102731.25;;;0.42;100.00
19797;BME280;10058;57.654;12.044;2024-03-07T04:22:37;102733.41;;;0.46;100.00
19797;BME280;10058;57.654;12.044;2024-03-07T04:25:06;102730.97;;;0.47;100.00
19797;BME280;10058;57.654;12.044;2024-03-07T04:27:32;102721.78;;;0.42;100.00
19797;BME280;10058;57.654;12.044;2024-03-07T04:29:59;102723.75;;;0.36;100.00
19797;BME280;10058;57.654;12.044;2024-03-07T04:32:24;102723.00;;;0.37;100.00
19797;BME280;10058;57.654;12.044;2024-03-07T04:34:49;102727.91;;;0.34;100.00
19797;BME280;10058;57.654;12.044;2024-03-07T04:37:15;102723.94;;;0.29;100.00
19797;BME280;10058;57.654;12.044;2024-03-07T04:39:40;102731.56;;;0.27;100.00
19797;BME280;10058;57.654;12.044;2024-03-07T04:42:06;102726.22;;;0.26;100.00
19797;BME280;10058;57.654;12.044;2024-03-07T04:44:31;102726.53;;;0.29;100.00
19797;BME280;10058;57.654;12.044;2024-03-07T04:46:58;102725.78;;;0.30;100.00
19797;BME280;10058;57.654;12.044;2024-03-07T04:49:24;102723.00;;;0.28;100.00
19797;BME280;10058;57.654;12.044;2024-03-07T04:51:56;102722.09;;;0.28;100.00
19797;BME280;10058;57.654;12.044;2024-03-07T04:54:23;102725.78;;;0.30;100.00
19797;BME280;10058;57.654;12.044;2024-03-07T04:56:49;102728.53;;;0.31;100.00
19797;BME280;10058;57.654;12.044;2024-03-07T04:59:15;102719.31;;;0.35;100.00
19797;BME280;10058;57.654;12.044;2024-03-07T05:01:41;102712.31;;;0.34;100.00
19797;BME280;10058;57.654;12.044;2024-03-07T05:04:06;102717.50;;;0.25;100.00
19797;BME280;10058;57.654;12.044;2024-03-07T05:06:32;102722.09;;;0.19;100.00
19797;BME280;10058;57.654;12.044;2024-03-07T05:09:00;102724.84;;;0.21;100.00
19797;BME280;10058;57.654;12.044;2024-03-07T05:11:27;102728.03;;;0.18;100.00
19797;BME280;10058;57.654;12.044;2024-03-07T05:13:52;102724.53;;;0.18;100.00
19797;BME280;10058;57.654;12.044;2024-03-07T05:16:17;102719.03;;;0.06;100.00
19797;BME280;10058;57.654;12.044;2024-03-07T05:18:42;102726.66;;;0.05;100.00
19797;BME280;10058;57.654;12.044;2024-03-07T05:21:08;102723.00;;;0.03;100.00
19797;BME280;10058;57.654;12.044;2024-03-07T05:23:53;102725.59;;;0.03;100.00
19797;BME280;10058;57.654;12.044;2024-03-07T05:26:18;102724.06;;;0.05;100.00
19797;BME280;10058;57.654;12.044;2024-03-07T05:28:44;102730.03;;;0.04;100.00
19797;BME280;10058;57.654;12.044;2024-03-07T05:31:09;102727.75;;;-0.02;100.00
19797;BME280;10058;57.654;12.044;2024-03-07T05:33:37;102726.84;;;-0.03;100.00
19797;BME280;10058;57.654;12.044;2024-03-07T05:36:03;102726.66;;;-0.13;100.00
19797;BME280;10058;57.654;12.044;2024-03-07T05:38:39;102720.25;;;-0.08;100.00
19797;BME280;10058;57.654;12.044;2024-03-07T05:41:04;102736.16;;;-0.05;100.00
19797;BME280;10058;57.654;12.044;2024-03-07T05:43:30;102726.69;;;-0.04;100.00
19797;BME280;10058;57.654;12.044;2024-03-07T05:45:55;102736.75;;;0.02;100.00
19797;BME280;10058;57.654;12.044;2024-03-07T05:48:21;102728.03;;;0.01;100.00
19797;BME280;10058;57.654;12.044;2024-03-07T05:50:46;102733.09;;;-0.01;100.00
19797;BME280;10058;57.654;12.044;2024-03-07T05:53:11;102732.03;;;-0.03;100.00
19797;BME280;10058;57.654;12.044;2024-03-07T05:55:36;102727.28;;;-0.07;100.00
19797;BME280;10058;57.654;12.044;2024-03-07T05:58:02;102730.66;;;-0.08;100.00
19797;BME280;10058;57.654;12.044;2024-03-07T06:00:27;102732.78;;;-0.04;100.00
19797;BME280;10058;57.654;12.044;2024-03-07T06:02:53;102729.72;;;0.00;100.00
19797;BME280;10058;57.654;12.044;2024-03-07T06:05:18;102736.91;;;-0.06;100.00
19797;BME280;10058;57.654;12.044;2024-03-07T06:07:44;102739.66;;;-0.04;100.00
19797;BME280;10058;57.654;12.044;2024-03-07T06:10:10;102744.72;;;0.03;100.00
19797;BME280;10058;57.654;12.044;2024-03-07T06:12:36;102733.09;;;0.08;100.00
19797;BME280;10058;57.654;12.044;2024-03-07T06:15:02;102740.13;;;0.18;100.00
19797;BME280;10058;57.654;12.044;2024-03-07T06:17:28;102745.03;;;0.15;100.00
19797;BME280;10058;57.654;12.044;2024-03-07T06:19:53;102743.53;;;0.17;100.00
19797;BME280;10058;57.654;12.044;2024-03-07T06:22:19;102737.06;;;0.22;100.00
19797;BME280;10058;57.654;12.044;2024-03-07T06:24:44;102738.44;;;0.18;100.00
19797;BME280;10058;57.654;12.044;2024-03-07T06:27:09;102736.31;;;0.23;100.00
19797;BME280;10058;57.654;12.044;2024-03-07T06:29:41;102737.06;;;0.22;100.00
19797;BME280;10058;57.654;12.044;2024-03-07T06:32:06;102740.91;;;0.25;100.00
19797;BME280;10058;57.654;12.044;2024-03-07T06:34:31;102738.31;;;0.34;100.00
19797;BME280;10058;57.654;12.044;2024-03-07T06:36:58;102743.50;;;0.43;100.00
19797;BME280;10058;57.654;12.044;2024-03-07T06:39:23;102734.31;;;0.46;100.00
19797;BME280;10058;57.654;12.044;2024-03-07T06:41:48;102737.69;;;0.62;100.00
19797;BME280;10058;57.654;12.044;2024-03-07T06:44:13;102738.72;;;0.82;100.00
19797;BME280;10058;57.654;12.044;2024-03-07T06:46:39;102744.03;;;0.92;100.00
19797;BME280;10058;57.654;12.044;2024-03-07T06:49:04;102736.38;;;1.02;100.00
19797;BME280;10058;57.654;12.044;2024-03-07T06:51:35;102742.44;;;1.11;100.00
19797;BME280;10058;57.654;12.044;2024-03-07T06:54:00;102735.09;;;1.07;100.00
19797;BME280;10058;57.654;12.044;2024-03-07T06:56:25;102735.66;;;1.22;100.00
19797;BME280;10058;57.654;12.044;2024-03-07T06:58:51;102733.50;;;1.26;100.00
19797;BME280;10058;57.654;12.044;2024-03-07T07:01:16;102725.69;;;1.26;100.00
19797;BME280;10058;57.654;12.044;2024-03-07T07:03:43;102732.25;;;1.31;100.00
19797;BME280;10058;57.654;12.044;2024-03-07T07:06:09;102679.06;;;1.02;100.00
19797;BME280;10058;57.654;12.044;2024-03-07T07:08:35;102731.03;;;1.36;100.00
19797;BME280;10058;57.654;12.044;2024-03-07T07:11:00;102729.47;;;1.38;100.00
19797;BME280;10058;57.654;12.044;2024-03-07T07:13:26;102725.16;;;1.39;100.00
19797;BME280;10058;57.654;12.044;2024-03-07T07:15:51;102732.94;;;1.48;100.00
19797;BME280;10058;57.654;12.044;2024-03-07T07:18:16;102735.94;;;1.61;100.00
19797;BME280;10058;57.654;12.044;2024-03-07T07:20:42;102733.22;;;1.78;100.00
19797;BME280;10058;57.654;12.044;2024-03-07T07:23:07;102733.59;;;1.91;100.00
19797;BME280;10058;57.654;12.044;2024-03-07T07:25:33;102726.31;;;2.06;100.00
19797;BME280;10058;57.654;12.044;2024-03-07T07:27:58;102730.59;;;2.05;100.00
19797;BME280;10058;57.654;12.044;2024-03-07T07:30:24;102727.47;;;2.09;100.00
19797;BME280;10058;57.654;12.044;2024-03-07T07:32:50;102728.34;;;2.19;100.00
19797;BME280;10058;57.654;12.044;2024-03-07T07:35:16;102725.38;;;2.24;100.00
19797;BME280;10058;57.654;12.044;2024-03-07T07:37:42;102717.97;;;2.29;100.00
19797;BME280;10058;57.654;12.044;2024-03-07T07:40:09;102726.34;;;2.35;100.00
19797;BME280;10058;57.654;12.044;2024-03-07T07:42:35;102718.03;;;2.39;100.00
19797;BME280;10058;57.654;12.044;2024-03-07T07:45:03;102711.53;;;2.44;100.00
19797;BME280;10058;57.654;12.044;2024-03-07T07:47:31;102718.22;;;2.51;100.00
19797;BME280;10058;57.654;12.044;2024-03-07T07:49:57;102719.44;;;2.54;100.00
19797;BME280;10058;57.654;12.044;2024-03-07T07:52:22;102711.09;;;2.58;100.00
19797;BME280;10058;57.654;12.044;2024-03-07T07:54:48;102710.81;;;2.55;100.00
19797;BME280;10058;57.654;12.044;2024-03-07T07:57:13;102712.69;;;2.66;100.00
19797;BME280;10058;57.654;12.044;2024-03-07T07:59:38;102714.03;;;2.71;100.00
19797;BME280;10058;57.654;12.044;2024-03-07T08:02:03;102708.31;;;2.75;100.00
19797;BME280;10058;57.654;12.044;2024-03-07T08:04:31;102710.19;;;2.87;100.00
19797;BME280;10058;57.654;12.044;2024-03-07T08:06:57;102703.91;;;2.95;100.00
19797;BME280;10058;57.654;12.044;2024-03-07T08:09:22;102705.16;;;3.08;100.00
19797;BME280;10058;57.654;12.044;2024-03-07T08:11:47;102703.72;;;3.12;100.00
19797;BME280;10058;57.654;12.044;2024-03-07T08:14:15;102708.84;;;3.21;100.00
19797;BME280;10058;57.654;12.044;2024-03-07T08:16:40;102689.91;;;3.33;100.00
19797;BME280;10058;57.654;12.044;2024-03-07T08:19:05;102700.66;;;3.36;100.00
19797;BME280;10058;57.654;12.044;2024-03-07T08:21:31;102697.16;;;3.46;100.00
19797;BME280;10058;57.654;12.044;2024-03-07T08:23:57;102692.03;;;3.37;100.00
19797;BME280;10058;57.654;12.044;2024-03-07T08:26:23;102697.00;;;3.55;100.00
19797;BME280;10058;57.654;12.044;2024-03-07T08:28:48;102698.31;;;3.70;100.00
19797;BME280;10058;57.654;12.044;2024-03-07T08:31:13;102700.97;;;3.80;100.00
19797;BME280;10058;57.654;12.044;2024-03-07T08:33:38;102699.91;;;3.88;100.00
19797;BME280;10058;57.654;12.044;2024-03-07T08:36:04;102687.72;;;3.99;100.00
19797;BME280;10058;57.654;12.044;2024-03-07T08:38:29;102695.19;;;3.94;100.00
19797;BME280;10058;57.654;12.044;2024-03-07T08:40:54;102698.31;;;4.10;100.00
19797;BME280;10058;57.654;12.044;2024-03-07T08:43:20;102694.50;;;4.27;100.00
19797;BME280;10058;57.654;12.044;2024-03-07T08:45:46;102694.88;;;4.32;100.00
19797;BME280;10058;57.654;12.044;2024-03-07T08:48:11;102682.66;;;4.42;100.00
19797;BME280;10058;57.654;12.044;2024-03-07T08:50:38;102687.50;;;4.48;100.00
19797;BME280;10058;57.654;12.044;2024-03-07T08:53:03;102679.47;;;4.57;100.00
19797;BME280;10058;57.654;12.044;2024-03-07T08:55:32;102674.22;;;4.67;100.00
19797;BME280;10058;57.654;12.044;2024-03-07T08:57:57;102660.16;;;4.76;100.00
19797;BME280;10058;57.654;12.044;2024-03-07T09:00:22;102666.22;;;4.65;100.00
19797;BME280;10058;57.654;12.044;2024-03-07T09:02:52;102660.66;;;4.82;100.00
19797;BME280;10058;57.654;12.044;2024-03-07T09:05:18;102661.63;;;4.95;100.00
19797;BME280;10058;57.654;12.044;2024-03-07T09:07:43;102652.63;;;5.13;100.00
19797;BME280;10058;57.654;12.044;2024-03-07T09:10:11;102648.53;;;5.16;100.00
19797;BME280;10058;57.654;12.044;2024-03-07T09:12:37;102650.00;;;5.13;100.00
19797;BME280;10058;57.654;12.044;2024-03-07T09:15:03;102640.53;;;5.15;100.00
19797;BME280;10058;57.654;12.044;2024-03-07T09:17:28;102645.06;;;5.39;100.00
19797;BME280;10058;57.654;12.044;2024-03-07T09:19:53;102645.41;;;5.32;100.00
19797;BME280;10058;57.654;12.044;2024-03-07T09:22:18;102640.00;;;5.52;100.00
19797;BME280;10058;57.654;12.044;2024-03-07T09:24:44;102637.53;;;5.66;100.00
19797;BME280;10058;57.654;12.044;2024-03-07T09:27:09;102633.22;;;5.78;100.00
19797;BME280;10058;57.654;12.044;2024-03-07T09:29:34;102635.09;;;5.90;100.00
19797;BME280;10058;57.654;12.044;2024-03-07T09:31:59;102632.59;;;5.92;100.00
19797;BME280;10058;57.654;12.044;2024-03-07T09:34:24;102634.41;;;5.93;100.00
19797;BME280;10058;57.654;12.044;2024-03-07T09:36:50;102627.28;;;5.80;100.00
19797;BME280;10058;57.654;12.044;2024-03-07T09:39:16;102628.94;;;5.90;100.00
19797;BME280;10058;57.654;12.044;2024-03-07T09:41:41;102623.94;;;6.16;100.00
19797;BME280;10058;57.654;12.044;2024-03-07T09:44:10;102619.81;;;6.32;100.00
19797;BME280;10058;57.654;12.044;2024-03-07T09:46:37;102620.94;;;6.23;100.00
19797;BME280;10058;57.654;12.044;2024-03-07T09:49:03;102615.03;;;6.14;100.00
19797;BME280;10058;57.654;12.044;2024-03-07T09:51:31;102616.38;;;6.56;100.00
19797;BME280;10058;57.654;12.044;2024-03-07T09:53:56;102609.22;;;6.78;100.00
19797;BME280;10058;57.654;12.044;2024-03-07T09:56:23;102601.69;;;6.83;100.00
19797;BME280;10058;57.654;12.044;2024-03-07T09:58:50;102614.31;;;6.52;100.00
19797;BME280;10058;57.654;12.044;2024-03-07T10:01:17;102603.56;;;6.72;100.00
19797;BME280;10058;57.654;12.044;2024-03-07T10:03:44;102606.31;;;6.62;100.00
19797;BME280;10058;57.654;12.044;2024-03-07T10:06:10;102603.78;;;6.75;100.00
19797;BME280;10058;57.654;12.044;2024-03-07T10:08:35;102603.38;;;6.46;100.00
19797;BME280;10058;57.654;12.044;2024-03-07T10:11:01;102603.97;;;6.78;100.00
19797;BME280;10058;57.654;12.044;2024-03-07T10:13:27;102601.63;;;6.94;100.00
19797;BME280;10058;57.654;12.044;2024-03-07T10:15:53;102592.44;;;7.13;100.00
19797;BME280;10058;57.654;12.044;2024-03-07T10:18:24;102598.13;;;7.19;100.00
19797;BME280;10058;57.654;12.044;2024-03-07T10:20:52;102599.28;;;7.11;100.00
19797;BME280;10058;57.654;12.044;2024-03-07T10:23:19;102599.00;;;6.94;100.00
19797;BME280;10058;57.654;12.044;2024-03-07T10:25:46;102591.63;;;7.14;100.00
19797;BME280;10058;57.654;12.044;2024-03-07T10:28:11;102586.44;;;7.27;100.00
19797;BME280;10058;57.654;12.044;2024-03-07T10:30:43;102589.22;;;7.17;100.00
19797;BME280;10058;57.654;12.044;2024-03-07T10:33:12;102586.63;;;7.30;100.00
19797;BME280;10058;57.654;12.044;2024-03-07T10:35:38;102579.88;;;7.33;100.00
19797;BME280;10058;57.654;12.044;2024-03-07T10:38:03;102582.41;;;7.45;100.00
19797;BME280;10058;57.654;12.044;2024-03-07T10:40:32;102587.44;;;7.04;100.00
19797;BME280;10058;57.654;12.044;2024-03-07T10:42:58;102580.34;;;7.53;100.00
19797;BME280;10058;57.654;12.044;2024-03-07T10:45:28;102570.22;;;7.59;100.00
19797;BME280;10058;57.654;12.044;2024-03-07T10:47:54;102576.19;;;7.56;100.00
19797;BME280;10058;57.654;12.044;2024-03-07T10:53:10;102566.97;;;7.63;100.00
19797;BME280;10058;57.654;12.044;2024-03-07T10:55:49;102561.34;;;7.83;100.00
19797;BME280;10058;57.654;12.044;2024-03-07T11:00:43;102551.81;;;7.98;100.00
19797;BME280;10058;57.654;12.044;2024-03-07T11:03:10;102555.16;;;7.83;100.00
19797;BME280;10058;57.654;12.044;2024-03-07T11:05:36;102554.38;;;8.10;100.00
19797;BME280;10058;57.654;12.044;2024-03-07T11:08:02;102545.78;;;8.13;100.00
19797;BME280;10058;57.654;12.044;2024-03-07T11:10:36;102544.84;;;8.25;100.00
19797;BME280;10058;57.654;12.044;2024-03-07T11:13:02;102544.84;;;8.38;100.00
19797;BME280;10058;57.654;12.044;2024-03-07T11:15:28;102544.25;;;8.29;100.00
19797;BME280;10058;57.654;12.044;2024-03-07T11:17:54;102530.47;;;8.33;100.00
19797;BME280;10058;57.654;12.044;2024-03-07T11:22:48;102528.81;;;8.49;100.00
19797;BME280;10058;57.654;12.044;2024-03-07T11:25:17;102531.16;;;8.44;100.00
19797;BME280;10058;57.654;12.044;2024-03-07T11:27:44;102526.50;;;8.27;100.00
19797;BME280;10058;57.654;12.044;2024-03-07T11:30:16;102523.97;;;8.42;100.00
19797;BME280;10058;57.654;12.044;2024-03-07T11:32:42;102512.19;;;8.50;100.00
19797;BME280;10058;57.654;12.044;2024-03-07T11:35:13;102516.78;;;8.67;100.00
19797;BME280;10058;57.654;12.044;2024-03-07T11:37:44;102527.19;;;8.51;100.00
19797;BME280;10058;57.654;12.044;2024-03-07T11:40:11;102509.56;;;8.78;100.00
19797;BME280;10058;57.654;12.044;2024-03-07T11:42:46;102506.16;;;8.93;100.00
19797;BME280;10058;57.654;12.044;2024-03-07T11:45:13;102501.31;;;8.86;100.00
19797;BME280;10058;57.654;12.044;2024-03-07T11:47:49;102500.06;;;8.94;100.00
19797;BME280;10058;57.654;12.044;2024-03-07T11:50:15;102500.31;;;8.84;100.00
19797;BME280;10058;57.654;12.044;2024-03-07T11:52:44;102492.16;;;8.94;100.00
19797;BME280;10058;57.654;12.044;2024-03-07T11:55:11;102489.84;;;9.14;100.00
19797;BME280;10058;57.654;12.044;2024-03-07T11:57:36;102488.00;;;9.13;100.00
19797;BME280;10058;57.654;12.044;2024-03-07T12:00:03;102482.38;;;9.21;100.00
19797;BME280;10058;57.654;12.044;2024-03-07T12:02:36;102475.56;;;9.25;100.00
19797;BME280;10058;57.654;12.044;2024-03-07T12:05:02;102478.72;;;9.19;100.00
19797;BME280;10058;57.654;12.044;2024-03-07T12:07:30;102475.81;;;9.44;100.00
19797;BME280;10058;57.654;12.044;2024-03-07T12:09:55;102477.53;;;9.58;100.00
19797;BME280;10058;57.654;12.044;2024-03-07T12:12:21;102480.38;;;9.47;100.00
19797;BME280;10058;57.654;12.044;2024-03-07T12:14:47;102471.66;;;9.33;100.00
19797;BME280;10058;57.654;12.044;2024-03-07T12:17:12;102471.66;;;9.48;100.00
19797;BME280;10058;57.654;12.044;2024-03-07T12:19:38;102465.63;;;9.35;100.00
19797;BME280;10058;57.654;12.044;2024-03-07T12:22:07;102452.16;;;9.60;100.00
19797;BME280;10058;57.654;12.044;2024-03-07T12:24:37;102453.94;;;9.76;100.00
19797;BME280;10058;57.654;12.044;2024-03-07T12:27:09;102463.41;;;9.72;100.00
19797;BME280;10058;57.654;12.044;2024-03-07T12:29:35;102449.84;;;9.81;100.00
19797;BME280;10058;57.654;12.044;2024-03-07T12:32:01;102448.63;;;9.91;100.00
19797;BME280;10058;57.654;12.044;2024-03-07T12:34:26;102449.75;;;9.80;100.00
19797;BME280;10058;57.654;12.044;2024-03-07T12:36:52;102449.13;;;9.84;100.00
19797;BME280;10058;57.654;12.044;2024-03-07T12:39:27;102449.72;;;9.94;100.00
19797;BME280;10058;57.654;12.044;2024-03-07T12:41:57;102450.25;;;9.89;100.00